sensor_id;sensor_type;location;lat;lon;timestamp;temperature;humidity
51579;DHT22;47998;53.242;6.386;2024-02-04T00:01:49;5.40;99.90
51579;DHT22;47998;53.242;6.386;2024-02-04T00:04:15;5.20;99.90
51579;DHT22;47998;53.242;6.386;2024-02-04T00:06:41;5.30;99.90
51579;DHT22;47998;53.242;6.386;2024-02-04T00:09:06;5.30;99.90
51579;DHT22;47998;53.242;6.386;2024-02-04T00:11:33;5.30;99.90
51579;DHT22;47998;53.242;6.386;2024-02-04T00:14:00;5.20;99.90
51579;DHT22;47998;53.242;6.386;2024-02-04T00:16:26;5.30;99.90
51579;DHT22;47998;53.242;6.386;2024-02-04T00:18:52;5.20;99.90
51579;DHT22;47998;53.242;6.386;2024-02-04T00:21:18;5.10;99.90
51579;DHT22;47998;53.242;6.386;2024-02-04T00:23:44;5.10;99.90
51579;DHT22;47998;53.242;6.386;2024-02-04T00:26:10;5.00;99.90
51579;DHT22;47998;53.242;6.386;2024-02-04T00:28:35;4.80;99.90
51579;DHT22;47998;53.242;6.386;2024-02-04T00:31:01;4.70;99.90
51579;DHT22;47998;53.242;6.386;2024-02-04T00:33:26;4.50;99.90
51579;DHT22;47998;53.242;6.386;2024-02-04T00:35:52;4.30;99.90
51579;DHT22;47998;53.242;6.386;2024-02-04T00:38:18;4.40;99.90
51579;DHT22;47998;53.242;6.386;2024-02-04T00:40:43;4.40;99.90
51579;DHT22;47998;53.242;6.386;2024-02-04T00:43:09;4.50;99.90
51579;DHT22;47998;53.242;6.386;2024-02-04T00:45:35;4.40;99.90
51579;DHT22;47998;53.242;6.386;2024-02-04T00:48:01;4.50;99.90
51579;DHT22;47998;53.242;6.386;2024-02-04T00:50:27;4.50;99.90
51579;DHT22;47998;53.242;6.386;2024-02-04T00:52:52;4.60;99.90
51579;DHT22;47998;53.242;6.386;2024-02-04T00:55:19;4.50;99.90
51579;DHT22;47998;53.242;6.386;2024-02-04T00:57:45;4.50;99.90
51579;DHT22;47998;53.242;6.386;2024-02-04T01:00:11;4.60;99.90
51579;DHT22;47998;53.242;6.386;2024-02-04T01:02:39;4.70;99.90
51579;DHT22;47998;53.242;6.386;2024-02-04T01:05:05;4.80;99.90
51579;DHT22;47998;53.242;6.386;2024-02-04T01:07:31;4.80;99.90
51579;DHT22;47998;53.242;6.386;2024-02-04T01:09:56;5.00;99.90
51579;DHT22;47998;53.242;6.386;2024-02-04T01:12:22;4.90;99.90
51579;DHT22;47998;53.242;6.386;2024-02-04T01:14:48;4.90;99.90
51579;DHT22;47998;53.242;6.386;2024-02-04T01:17:13;4.80;99.90
51579;DHT22;47998;53.242;6.386;2024-02-04T01:19:39;4.90;99.90
51579;DHT22;47998;53.242;6.386;2024-02-04T01:22:05;4.80;99.90
51579;DHT22;47998;53.242;6.386;2024-02-04T01:24:31;4.80;99.90
51579;DHT22;47998;53.242;6.386;2024-02-04T01:26:57;4.60;99.90
51579;DHT22;47998;53.242;6.386;2024-02-04T01:29:23;4.70;99.90
51579;DHT22;47998;53.242;6.386;2024-02-04T01:31:48;4.70;99.90
51579;DHT22;47998;53.242;6.386;2024-02-04T01:34:14;4.60;99.90
51579;DHT22;47998;53.242;6.386;2024-02-04T01:36:40;4.50;99.90
51579;DHT22;47998;53.242;6.386;2024-02-04T01:39:05;4.50;99.90
51579;DHT22;47998;53.242;6.386;2024-02-04T01:41:32;4.40;99.90
51579;DHT22;47998;53.242;6.386;2024-02-04T01:43:59;4.40;99.90
51579;DHT22;47998;53.242;6.386;2024-02-04T01:46:24;4.40;99.90
51579;DHT22;47998;53.242;6.386;2024-02-04T01:48:50;4.50;99.90
51579;DHT22;47998;53.242;6.386;2024-02-04T01:51:17;4.50;99.90
51579;DHT22;47998;53.242;6.386;2024-02-04T01:53:45;4.40;99.90
51579;DHT22;47998;53.242;6.386;2024-02-04T01:56:12;4.30;99.90
51579;DHT22;47998;53.242;6.386;2024-02-04T01:58:39;4.30;99.90
51579;DHT22;47998;53.242;6.386;2024-02-04T02:01:08;4.30;99.90
51579;DHT22;47998;53.242;6.386;2024-02-04T02:03:34;4.30;99.90
51579;DHT22;47998;53.242;6.386;2024-02-04T02:06:01;4.30;99.90
51579;DHT22;47998;53.242;6.386;2024-02-04T02:08:27;4.40;99.90
51579;DHT22;47998;53.242;6.386;2024-02-04T02:11:03;4.40;99.90
51579;DHT22;47998;53.242;6.386;2024-02-04T02:13:32;4.40;99.90
51579;DHT22;47998;53.242;6.386;2024-02-04T02:16:07;4.40;99.90
51579;DHT22;47998;53.242;6.386;2024-02-04T02:24:12;4.40;99.90
51579;DHT22;47998;53.242;6.386;2024-02-04T02:26:40;4.40;99.90
51579;DHT22;47998;53.242;6.386;2024-02-04T02:29:06;4.40;99.90
51579;DHT22;47998;53.242;6.386;2024-02-04T02:31:35;4.40;99.90
51579;DHT22;47998;53.242;6.386;2024-02-04T02:34:02;4.40;99.90
51579;DHT22;47998;53.242;6.386;2024-02-04T02:36:30;4.40;99.90
51579;DHT22;47998;53.242;6.386;2024-02-04T02:41:25;4.50;99.90
51579;DHT22;47998;53.242;6.386;2024-02-04T02:43:53;4.60;99.90
51579;DHT22;47998;53.242;6.386;2024-02-04T02:46:20;4.60;99.90
51579;DHT22;47998;53.242;6.386;2024-02-04T02:48:46;4.70;99.90
51579;DHT22;47998;53.242;6.386;2024-02-04T02:51:12;4.60;99.90
51579;DHT22;47998;53.242;6.386;2024-02-04T02:53:37;4.70;99.90
51579;DHT22;47998;53.242;6.386;2024-02-04T02:56:03;4.60;99.90
51579;DHT22;47998;53.242;6.386;2024-02-04T02:58:29;4.60;99.90
51579;DHT22;47998;53.242;6.386;2024-02-04T03:00:55;4.60;99.90
51579;DHT22;47998;53.242;6.386;2024-02-04T03:03:20;4.60;99.90
51579;DHT22;47998;53.242;6.386;2024-02-04T03:05:46;4.70;99.90
51579;DHT22;47998;53.242;6.386;2024-02-04T03:08:12;4.60;99.90
51579;DHT22;47998;53.242;6.386;2024-02-04T03:10:37;4.60;99.90
51579;DHT22;47998;53.242;6.386;2024-02-04T03:13:03;4.60;99.90
51579;DHT22;47998;53.242;6.386;2024-02-04T03:15:29;4.60;99.90
51579;DHT22;47998;53.242;6.386;2024-02-04T03:17:54;4.60;99.90
51579;DHT22;47998;53.242;6.386;2024-02-04T03:20:20;4.60;99.90
51579;DHT22;47998;53.242;6.386;2024-02-04T03:22:47;4.60;99.90
51579;DHT22;47998;53.242;6.386;2024-02-04T03:25:13;4.60;99.90
51579;DHT22;47998;53.242;6.386;2024-02-04T03:27:40;4.60;99.90
51579;DHT22;47998;53.242;6.386;2024-02-04T03:30:06;4.70;99.90
51579;DHT22;47998;53.242;6.386;2024-02-04T03:32:31;4.80;99.90
51579;DHT22;47998;53.242;6.386;2024-02-04T03:35:02;5.00;99.90
51579;DHT22;47998;53.242;6.386;2024-02-04T03:37:28;4.80;99.90
51579;DHT22;47998;53.242;6.386;2024-02-04T03:39:54;4.90;99.90
51579;DHT22;47998;53.242;6.386;2024-02-04T03:42:20;4.90;99.90
51579;DHT22;47998;53.242;6.386;2024-02-04T03:44:47;4.90;99.90
51579;DHT22;47998;53.242;6.386;2024-02-04T03:47:13;5.00;99.90
51579;DHT22;47998;53.242;6.386;2024-02-04T03:49:39;4.90;99.90
51579;DHT22;47998;53.242;6.386;2024-02-04T03:52:05;5.10;99.90
51579;DHT22;47998;53.242;6.386;2024-02-04T03:54:32;5.00;99.90
51579;DHT22;47998;53.242;6.386;2024-02-04T03:56:57;5.00;99.90
51579;DHT22;47998;53.242;6.386;2024-02-04T03:59:23;5.00;99.90
51579;DHT22;47998;53.242;6.386;2024-02-04T04:01:50;5.00;99.90
51579;DHT22;47998;53.242;6.386;2024-02-04T04:04:16;5.10;99.90
51579;DHT22;47998;53.242;6.386;2024-02-04T04:06:44;5.00;99.90
51579;DHT22;47998;53.242;6.386;2024-02-04T04:09:09;5.10;99.90
51579;DHT22;47998;53.242;6.386;2024-02-04T04:11:36;5.10;99.90
51579;DHT22;47998;53.242;6.386;2024-02-04T04:14:02;5.20;99.90
51579;DHT22;47998;53.242;6.386;2024-02-04T04:16:28;5.20;99.90
51579;DHT22;47998;53.242;6.386;2024-02-04T04:18:54;5.10;99.90
51579;DHT22;47998;53.242;6.386;2024-02-04T04:21:20;5.20;99.90
51579;DHT22;47998;53.242;6.386;2024-02-04T04:23:46;5.10;99.90
51579;DHT22;47998;53.242;6.386;2024-02-04T04:26:12;5.10;99.90
51579;DHT22;47998;53.242;6.386;2024-02-04T04:28:37;5.20;99.90
51579;DHT22;47998;53.242;6.386;2024-02-04T04:31:03;5.20;99.90
51579;DHT22;47998;53.242;6.386;2024-02-04T04:33:29;5.20;99.90
51579;DHT22;47998;53.242;6.386;2024-02-04T04:35:55;5.30;99.90
51579;DHT22;47998;53.242;6.386;2024-02-04T04:38:21;5.30;99.90
51579;DHT22;47998;53.242;6.386;2024-02-04T04:40:47;5.40;99.90
51579;DHT22;47998;53.242;6.386;2024-02-04T04:43:13;5.40;99.90
51579;DHT22;47998;53.242;6.386;2024-02-04T04:45:39;5.40;99.90
51579;DHT22;47998;53.242;6.386;2024-02-04T04:48:05;5.30;99.90
51579;DHT22;47998;53.242;6.386;2024-02-04T04:50:33;5.40;99.90
51579;DHT22;47998;53.242;6.386;2024-02-04T04:52:59;5.40;99.90
51579;DHT22;47998;53.242;6.386;2024-02-04T04:55:24;5.40;99.90
51579;DHT22;47998;53.242;6.386;2024-02-04T04:57:50;5.40;99.90
51579;DHT22;47998;53.242;6.386;2024-02-04T05:00:18;5.40;99.90
51579;DHT22;47998;53.242;6.386;2024-02-04T05:02:44;5.40;99.90
51579;DHT22;47998;53.242;6.386;2024-02-04T05:05:15;5.40;99.90
51579;DHT22;47998;53.242;6.386;2024-02-04T05:07:41;5.50;99.90
51579;DHT22;47998;53.242;6.386;2024-02-04T05:10:07;5.40;99.90
51579;DHT22;47998;53.242;6.386;2024-02-04T05:12:36;5.50;99.90
51579;DHT22;47998;53.242;6.386;2024-02-04T05:15:01;5.50;99.90
51579;DHT22;47998;53.242;6.386;2024-02-04T05:17:27;5.60;99.90
51579;DHT22;47998;53.242;6.386;2024-02-04T05:19:53;5.50;99.90
51579;DHT22;47998;53.242;6.386;2024-02-04T05:22:19;5.50;99.90
51579;DHT22;47998;53.242;6.386;2024-02-04T05:24:44;5.50;99.90
51579;DHT22;47998;53.242;6.386;2024-02-04T05:27:10;5.50;99.90
51579;DHT22;47998;53.242;6.386;2024-02-04T05:29:36;5.50;99.90
51579;DHT22;47998;53.242;6.386;2024-02-04T05:32:01;5.50;99.90
51579;DHT22;47998;53.242;6.386;2024-02-04T05:34:27;5.50;99.90
51579;DHT22;47998;53.242;6.386;2024-02-04T05:36:55;5.50;99.90
51579;DHT22;47998;53.242;6.386;2024-02-04T05:39:21;5.60;99.90
51579;DHT22;47998;53.242;6.386;2024-02-04T05:41:49;5.40;99.90
51579;DHT22;47998;53.242;6.386;2024-02-04T05:44:14;5.50;99.90
51579;DHT22;47998;53.242;6.386;2024-02-04T05:46:40;5.60;99.90
51579;DHT22;47998;53.242;6.386;2024-02-04T05:49:06;5.60;99.90
51579;DHT22;47998;53.242;6.386;2024-02-04T05:51:32;5.70;99.90
51579;DHT22;47998;53.242;6.386;2024-02-04T05:53:58;5.60;99.90
51579;DHT22;47998;53.242;6.386;2024-02-04T05:56:24;5.60;99.90
51579;DHT22;47998;53.242;6.386;2024-02-04T05:58:50;5.60;99.90
51579;DHT22;47998;53.242;6.386;2024-02-04T06:01:16;5.60;99.90
51579;DHT22;47998;53.242;6.386;2024-02-04T06:03:43;5.70;99.90
51579;DHT22;47998;53.242;6.386;2024-02-04T06:06:13;5.60;99.90
51579;DHT22;47998;53.242;6.386;2024-02-04T06:08:39;5.60;99.90
51579;DHT22;47998;53.242;6.386;2024-02-04T06:11:05;5.80;99.90
51579;DHT22;47998;53.242;6.386;2024-02-04T06:13:31;5.70;99.90
51579;DHT22;47998;53.242;6.386;2024-02-04T06:15:56;5.70;99.90
51579;DHT22;47998;53.242;6.386;2024-02-04T06:18:22;5.80;99.90
51579;DHT22;47998;53.242;6.386;2024-02-04T06:20:48;5.80;99.90
51579;DHT22;47998;53.242;6.386;2024-02-04T06:23:13;5.80;99.90
51579;DHT22;47998;53.242;6.386;2024-02-04T06:25:39;5.80;99.90
51579;DHT22;47998;53.242;6.386;2024-02-04T06:28:05;5.80;99.90
51579;DHT22;47998;53.242;6.386;2024-02-04T06:30:34;5.80;99.90
51579;DHT22;47998;53.242;6.386;2024-02-04T06:33:00;5.80;99.90
51579;DHT22;47998;53.242;6.386;2024-02-04T06:35:25;5.80;99.90
51579;DHT22;47998;53.242;6.386;2024-02-04T06:37:51;5.80;99.90
51579;DHT22;47998;53.242;6.386;2024-02-04T06:40:17;5.90;99.90
51579;DHT22;47998;53.242;6.386;2024-02-04T06:42:42;5.90;99.90
51579;DHT22;47998;53.242;6.386;2024-02-04T06:45:08;6.00;99.90
51579;DHT22;47998;53.242;6.386;2024-02-04T06:47:34;5.90;99.90
51579;DHT22;47998;53.242;6.386;2024-02-04T06:50:00;5.90;99.90
51579;DHT22;47998;53.242;6.386;2024-02-04T06:52:28;6.00;99.90
51579;DHT22;47998;53.242;6.386;2024-02-04T06:54:54;6.00;99.90
51579;DHT22;47998;53.242;6.386;2024-02-04T06:57:19;6.00;99.90
51579;DHT22;47998;53.242;6.386;2024-02-04T06:59:45;6.00;99.90
51579;DHT22;47998;53.242;6.386;2024-02-04T07:02:11;6.00;99.90
51579;DHT22;47998;53.242;6.386;2024-02-04T07:04:37;6.00;99.90
51579;DHT22;47998;53.242;6.386;2024-02-04T07:07:02;6.10;99.90
51579;DHT22;47998;53.242;6.386;2024-02-04T07:09:28;6.00;99.90
51579;DHT22;47998;53.242;6.386;2024-02-04T07:11:54;6.00;99.90
51579;DHT22;47998;53.242;6.386;2024-02-04T07:14:19;6.10;99.90
51579;DHT22;47998;53.242;6.386;2024-02-04T07:16:45;6.00;99.90
51579;DHT22;47998;53.242;6.386;2024-02-04T07:19:11;6.10;99.90
51579;DHT22;47998;53.242;6.386;2024-02-04T07:21:36;6.10;99.90
51579;DHT22;47998;53.242;6.386;2024-02-04T07:24:02;6.10;99.90
51579;DHT22;47998;53.242;6.386;2024-02-04T07:26:28;6.10;99.90
51579;DHT22;47998;53.242;6.386;2024-02-04T07:28:54;6.10;99.90
51579;DHT22;47998;53.242;6.386;2024-02-04T07:31:19;6.20;99.90
51579;DHT22;47998;53.242;6.386;2024-02-04T07:33:45;6.20;99.90
51579;DHT22;47998;53.242;6.386;2024-02-04T07:36:11;6.30;99.90
51579;DHT22;47998;53.242;6.386;2024-02-04T07:38:37;6.20;99.90
51579;DHT22;47998;53.242;6.386;2024-02-04T07:41:03;6.20;99.90
51579;DHT22;47998;53.242;6.386;2024-02-04T07:43:28;6.10;99.90
51579;DHT22;47998;53.242;6.386;2024-02-04T07:45:54;6.10;99.90
51579;DHT22;47998;53.242;6.386;2024-02-04T07:48:20;6.10;99.90
51579;DHT22;47998;53.242;6.386;2024-02-04T07:50:46;6.10;99.90
51579;DHT22;47998;53.242;6.386;2024-02-04T07:53:12;6.10;99.90
51579;DHT22;47998;53.242;6.386;2024-02-04T07:55:38;6.30;99.90
51579;DHT22;47998;53.242;6.386;2024-02-04T07:58:04;6.30;99.90
51579;DHT22;47998;53.242;6.386;2024-02-04T08:00:30;6.30;99.90
51579;DHT22;47998;53.242;6.386;2024-02-04T08:02:55;6.30;99.90
51579;DHT22;47998;53.242;6.386;2024-02-04T08:05:21;6.40;99.90
51579;DHT22;47998;53.242;6.386;2024-02-04T08:07:47;6.40;99.90
51579;DHT22;47998;53.242;6.386;2024-02-04T08:10:12;6.30;99.90
51579;DHT22;47998;53.242;6.386;2024-02-04T08:12:38;6.30;99.90
51579;DHT22;47998;53.242;6.386;2024-02-04T08:15:04;6.40;99.90
51579;DHT22;47998;53.242;6.386;2024-02-04T08:17:30;6.40;99.90
51579;DHT22;47998;53.242;6.386;2024-02-04T08:19:59;6.50;99.90
51579;DHT22;47998;53.242;6.386;2024-02-04T08:22:25;6.50;99.90
51579;DHT22;47998;53.242;6.386;2024-02-04T08:24:50;6.40;99.90
51579;DHT22;47998;53.242;6.386;2024-02-04T08:27:16;6.40;99.90
51579;DHT22;47998;53.242;6.386;2024-02-04T08:29:43;6.50;99.90
51579;DHT22;47998;53.242;6.386;2024-02-04T08:32:09;6.50;99.90
51579;DHT22;47998;53.242;6.386;2024-02-04T08:34:34;6.50;99.90
51579;DHT22;47998;53.242;6.386;2024-02-04T08:37:00;6.60;99.90
51579;DHT22;47998;53.242;6.386;2024-02-04T08:39:26;6.60;99.90
51579;DHT22;47998;53.242;6.386;2024-02-04T08:41:52;6.60;99.90
51579;DHT22;47998;53.242;6.386;2024-02-04T08:44:17;6.60;99.90
51579;DHT22;47998;53.242;6.386;2024-02-04T08:46:43;6.60;99.90
51579;DHT22;47998;53.242;6.386;2024-02-04T08:49:09;6.70;99.90
51579;DHT22;47998;53.242;6.386;2024-02-04T08:51:34;6.70;99.90
51579;DHT22;47998;53.242;6.386;2024-02-04T08:54:00;6.70;99.90
51579;DHT22;47998;53.242;6.386;2024-02-04T08:56:26;6.70;99.90
51579;DHT22;47998;53.242;6.386;2024-02-04T08:58:52;6.80;99.90
51579;DHT22;47998;53.242;6.386;2024-02-04T09:01:19;6.80;99.90
51579;DHT22;47998;53.242;6.386;2024-02-04T09:03:45;6.80;99.90
51579;DHT22;47998;53.242;6.386;2024-02-04T09:06:10;6.80;99.90
51579;DHT22;47998;53.242;6.386;2024-02-04T09:08:36;6.80;99.90
51579;DHT22;47998;53.242;6.386;2024-02-04T09:11:02;6.90;99.90
51579;DHT22;47998;53.242;6.386;2024-02-04T09:13:27;6.90;99.90
51579;DHT22;47998;53.242;6.386;2024-02-04T09:15:53;7.00;99.90
51579;DHT22;47998;53.242;6.386;2024-02-04T09:18:20;7.00;99.90
51579;DHT22;47998;53.242;6.386;2024-02-04T09:20:46;7.00;99.90
51579;DHT22;47998;53.242;6.386;2024-02-04T09:23:12;7.10;99.90
51579;DHT22;47998;53.242;6.386;2024-02-04T09:25:38;7.00;99.90
51579;DHT22;47998;53.242;6.386;2024-02-04T09:28:04;7.00;99.90
51579;DHT22;47998;53.242;6.386;2024-02-04T09:30:30;7.00;99.90
51579;DHT22;47998;53.242;6.386;2024-02-04T09:32:55;7.10;99.90
51579;DHT22;47998;53.242;6.386;2024-02-04T09:35:21;7.10;99.90
51579;DHT22;47998;53.242;6.386;2024-02-04T09:37:47;7.10;99.90
51579;DHT22;47998;53.242;6.386;2024-02-04T09:40:13;7.20;99.90
51579;DHT22;47998;53.242;6.386;2024-02-04T09:42:39;7.20;99.90
51579;DHT22;47998;53.242;6.386;2024-02-04T09:45:05;7.20;99.90
51579;DHT22;47998;53.242;6.386;2024-02-04T09:47:32;7.30;99.90
51579;DHT22;47998;53.242;6.386;2024-02-04T09:50:00;7.30;99.90
51579;DHT22;47998;53.242;6.386;2024-02-04T09:52:29;7.40;99.90
51579;DHT22;47998;53.242;6.386;2024-02-04T09:55:02;7.40;99.90
51579;DHT22;47998;53.242;6.386;2024-02-04T09:57:29;7.50;99.90
51579;DHT22;47998;53.242;6.386;2024-02-04T09:59:56;7.60;99.90
51579;DHT22;47998;53.242;6.386;2024-02-04T10:02:22;7.60;99.90
51579;DHT22;47998;53.242;6.386;2024-02-04T10:04:48;7.60;99.90
51579;DHT22;47998;53.242;6.386;2024-02-04T10:07:14;7.50;99.90
51579;DHT22;47998;53.242;6.386;2024-02-04T10:09:42;7.60;99.90
51579;DHT22;47998;53.242;6.386;2024-02-04T10:12:08;7.60;99.90
51579;DHT22;47998;53.242;6.386;2024-02-04T10:14:35;7.60;99.90
51579;DHT22;47998;53.242;6.386;2024-02-04T10:17:01;7.60;99.90
51579;DHT22;47998;53.242;6.386;2024-02-04T10:19:26;7.70;99.90
51579;DHT22;47998;53.242;6.386;2024-02-04T10:22:03;7.80;99.90
51579;DHT22;47998;53.242;6.386;2024-02-04T10:24:29;7.80;99.90
51579;DHT22;47998;53.242;6.386;2024-02-04T10:26:55;7.90;99.90
51579;DHT22;47998;53.242;6.386;2024-02-04T10:29:25;7.80;99.90
51579;DHT22;47998;53.242;6.386;2024-02-04T10:31:55;7.90;99.90
51579;DHT22;47998;53.242;6.386;2024-02-04T10:34:22;7.90;99.90
51579;DHT22;47998;53.242;6.386;2024-02-04T10:36:47;7.90;99.90
51579;DHT22;47998;53.242;6.386;2024-02-04T10:39:13;8.00;99.90
51579;DHT22;47998;53.242;6.386;2024-02-04T10:41:47;8.00;99.90
51579;DHT22;47998;53.242;6.386;2024-02-04T10:44:16;8.00;99.90
51579;DHT22;47998;53.242;6.386;2024-02-04T10:46:46;8.10;99.90
51579;DHT22;47998;53.242;6.386;2024-02-04T10:49:14;8.10;99.90
51579;DHT22;47998;53.242;6.386;2024-02-04T10:51:42;8.10;99.90
51579;DHT22;47998;53.242;6.386;2024-02-04T10:54:08;8.10;99.90
51579;DHT22;47998;53.242;6.386;2024-02-04T10:56:42;8.00;99.90
51579;DHT22;47998;53.242;6.386;2024-02-04T10:59:10;7.90;99.90
51579;DHT22;47998;53.242;6.386;2024-02-04T11:01:41;8.00;99.90
51579;DHT22;47998;53.242;6.386;2024-02-04T11:04:11;8.00;99.90
51579;DHT22;47998;53.242;6.386;2024-02-04T11:06:38;8.00;99.90
51579;DHT22;47998;53.242;6.386;2024-02-04T11:09:06;8.00;99.90
51579;DHT22;47998;53.242;6.386;2024-02-04T11:11:36;8.00;99.90
51579;DHT22;47998;53.242;6.386;2024-02-04T11:14:04;7.90;99.90
51579;DHT22;47998;53.242;6.386;2024-02-04T11:27:37;7.90;99.90
51579;DHT22;47998;53.242;6.386;2024-02-04T11:30:03;8.00;99.90
51579;DHT22;47998;53.242;6.386;2024-02-04T11:32:30;8.00;99.90
51579;DHT22;47998;53.242;6.386;2024-02-04T11:34:55;8.10;99.90
51579;DHT22;47998;53.242;6.386;2024-02-04T11:37:26;8.10;99.90
51579;DHT22;47998;53.242;6.386;2024-02-04T11:39:53;8.00;99.90
51579;DHT22;47998;53.242;6.386;2024-02-04T11:42:19;8.10;99.90
51579;DHT22;47998;53.242;6.386;2024-02-04T11:44:46;8.10;99.90
51579;DHT22;47998;53.242;6.386;2024-02-04T11:47:23;8.20;99.90
51579;DHT22;47998;53.242;6.386;2024-02-04T11:49:57;8.20;99.90
51579;DHT22;47998;53.242;6.386;2024-02-04T11:52:22;8.20;99.90
51579;DHT22;47998;53.242;6.386;2024-02-04T11:54:48;8.30;99.90
51579;DHT22;47998;53.242;6.386;2024-02-04T11:57:15;8.30;99.90
51579;DHT22;47998;53.242;6.386;2024-02-04T11:59:42;8.40;99.90
51579;DHT22;47998;53.242;6.386;2024-02-04T12:02:08;8.40;99.90
51579;DHT22;47998;53.242;6.386;2024-02-04T12:04:35;8.30;99.90
51579;DHT22;47998;53.242;6.386;2024-02-04T12:07:01;8.40;99.90
51579;DHT22;47998;53.242;6.386;2024-02-04T12:09:28;8.40;99.90
51579;DHT22;47998;53.242;6.386;2024-02-04T12:11:55;8.40;99.90
51579;DHT22;47998;53.242;6.386;2024-02-04T12:14:21;8.40;99.90
51579;DHT22;47998;53.242;6.386;2024-02-04T12:16:47;8.40;99.90
51579;DHT22;47998;53.242;6.386;2024-02-04T12:19:13;8.40;99.90
51579;DHT22;47998;53.242;6.386;2024-02-04T12:21:39;8.40;99.90
51579;DHT22;47998;53.242;6.386;2024-02-04T12:24:05;8.40;99.90
51579;DHT22;47998;53.242;6.386;2024-02-04T12:26:31;8.40;99.90
51579;DHT22;47998;53.242;6.386;2024-02-04T12:28:57;8.40;99.90
51579;DHT22;47998;53.242;6.386;2024-02-04T12:31:27;8.40;99.90
51579;DHT22;47998;53.242;6.386;2024-02-04T12:33:58;8.40;99.90
51579;DHT22;47998;53.242;6.386;2024-02-04T12:36:28;8.30;99.90
51579;DHT22;47998;53.242;6.386;2024-02-04T12:38:55;8.40;99.90
51579;DHT22;47998;53.242;6.386;2024-02-04T12:41:25;8.20;99.90
51579;DHT22;47998;53.242;6.386;2024-02-04T12:43:52;8.20;99.90
51579;DHT22;47998;53.242;6.386;2024-02-04T12:46:19;8.20;99.90
51579;DHT22;47998;53.242;6.386;2024-02-04T12:48:45;8.20;99.90
51579;DHT22;47998;53.242;6.386;2024-02-04T12:51:23;8.20;99.90
51579;DHT22;47998;53.242;6.386;2024-02-04T12:53:49;8.30;99.90
51579;DHT22;47998;53.242;6.386;2024-02-04T12:56:15;8.30;99.90
51579;DHT22;47998;53.242;6.386;2024-02-04T12:58:44;8.30;99.90
51579;DHT22;47998;53.242;6.386;2024-02-04T13:01:09;8.30;99.90
51579;DHT22;47998;53.242;6.386;2024-02-04T13:03:35;8.30;99.90
51579;DHT22;47998;53.242;6.386;2024-02-04T13:06:01;8.30;99.90
51579;DHT22;47998;53.242;6.386;2024-02-04T13:08:27;8.30;99.90
51579;DHT22;47998;53.242;6.386;2024-02-04T13:10:57;8.30;99.90
51579;DHT22;47998;53.242;6.386;2024-02-04T13:13:23;8.30;99.90
51579;DHT22;47998;53.242;6.386;2024-02-04T13:15:54;8.20;99.90
51579;DHT22;47998;53.242;6.386;2024-02-04T13:18:21;8.10;99.90
51579;DHT22;47998;53.242;6.386;2024-02-04T13:20:47;8.10;99.90
51579;DHT22;47998;53.242;6.386;2024-02-04T13:23:13;8.00;99.90
51579;DHT22;47998;53.242;6.386;2024-02-04T13:25:39;8.00;99.90
51579;DHT22;47998;53.242;6.386;2024-02-04T13:28:04;8.00;99.90
51579;DHT22;47998;53.242;6.386;2024-02-04T13:30:30;8.00;99.90
51579;DHT22;47998;53.242;6.386;2024-02-04T13:32:56;8.00;99.90
51579;DHT22;47998;53.242;6.386;2024-02-04T13:35:23;8.00;99.90
51579;DHT22;47998;53.242;6.386;2024-02-04T13:37:49;8.10;99.90
51579;DHT22;47998;53.242;6.386;2024-02-04T13:40:21;8.00;99.90
51579;DHT22;47998;53.242;6.386;2024-02-04T13:42:48;7.90;99.90
51579;DHT22;47998;53.242;6.386;2024-02-04T13:45:14;7.80;99.90
51579;DHT22;47998;53.242;6.386;2024-02-04T13:47:40;7.80;99.90
51579;DHT22;47998;53.242;6.386;2024-02-04T13:50:07;7.80;99.90
51579;DHT22;47998;53.242;6.386;2024-02-04T13:52:36;7.80;99.90
51579;DHT22;47998;53.242;6.386;2024-02-04T13:55:02;7.90;99.90
51579;DHT22;47998;53.242;6.386;2024-02-04T13:57:31;7.70;99.90
51579;DHT22;47998;53.242;6.386;2024-02-04T13:59:56;7.70;99.90
51579;DHT22;47998;53.242;6.386;2024-02-04T14:02:22;7.60;99.90
51579;DHT22;47998;53.242;6.386;2024-02-04T14:04:50;7.70;99.90
51579;DHT22;47998;53.242;6.386;2024-02-04T14:07:16;7.80;99.90
51579;DHT22;47998;53.242;6.386;2024-02-04T14:09:42;7.80;99.90
51579;DHT22;47998;53.242;6.386;2024-02-04T14:12:08;7.80;99.90
51579;DHT22;47998;53.242;6.386;2024-02-04T14:14:34;7.80;99.90
51579;DHT22;47998;53.242;6.386;2024-02-04T14:17:00;7.80;99.90
51579;DHT22;47998;53.242;6.386;2024-02-04T14:19:25;7.80;99.90
51579;DHT22;47998;53.242;6.386;2024-02-04T14:21:51;7.70;99.90
51579;DHT22;47998;53.242;6.386;2024-02-04T14:24:17;7.70;99.90
51579;DHT22;47998;53.242;6.386;2024-02-04T14:26:42;7.80;99.90
51579;DHT22;47998;53.242;6.386;2024-02-04T14:29:09;7.70;99.90
51579;DHT22;47998;53.242;6.386;2024-02-04T14:31:35;7.70;99.90
51579;DHT22;47998;53.242;6.386;2024-02-04T14:34:00;7.80;99.90
51579;DHT22;47998;53.242;6.386;2024-02-04T14:36:27;7.80;99.90
51579;DHT22;47998;53.242;6.386;2024-02-04T14:38:53;7.70;99.90
51579;DHT22;47998;53.242;6.386;2024-02-04T14:41:19;7.80;99.90
51579;DHT22;47998;53.242;6.386;2024-02-04T14:43:45;7.80;99.90
51579;DHT22;47998;53.242;6.386;2024-02-04T14:46:10;7.90;99.90
51579;DHT22;47998;53.242;6.386;2024-02-04T14:48:36;7.90;99.90
51579;DHT22;47998;53.242;6.386;2024-02-04T14:51:03;7.90;99.90
51579;DHT22;47998;53.242;6.386;2024-02-04T14:53:28;8.00;99.90
51579;DHT22;47998;53.242;6.386;2024-02-04T14:55:54;8.00;99.90
51579;DHT22;47998;53.242;6.386;2024-02-04T14:58:22;7.90;99.90
51579;DHT22;47998;53.242;6.386;2024-02-04T15:00:48;7.90;99.90
51579;DHT22;47998;53.242;6.386;2024-02-04T15:03:14;8.00;99.90
51579;DHT22;47998;53.242;6.386;2024-02-04T15:05:40;8.10;99.90
51579;DHT22;47998;53.242;6.386;2024-02-04T15:08:07;8.00;99.90
51579;DHT22;47998;53.242;6.386;2024-02-04T15:10:33;8.00;99.90
51579;DHT22;47998;53.242;6.386;2024-02-04T15:12:59;8.10;99.90
51579;DHT22;47998;53.242;6.386;2024-02-04T15:15:25;8.10;99.90
51579;DHT22;47998;53.242;6.386;2024-02-04T15:17:51;8.10;99.90
51579;DHT22;47998;53.242;6.386;2024-02-04T15:20:17;7.90;99.90
51579;DHT22;47998;53.242;6.386;2024-02-04T15:22:45;7.80;99.90
51579;DHT22;47998;53.242;6.386;2024-02-04T15:25:11;7.80;99.90
51579;DHT22;47998;53.242;6.386;2024-02-04T15:27:41;7.80;99.90
51579;DHT22;47998;53.242;6.386;2024-02-04T15:30:10;7.90;99.90
51579;DHT22;47998;53.242;6.386;2024-02-04T15:32:37;7.90;99.90
51579;DHT22;47998;53.242;6.386;2024-02-04T15:35:03;8.00;99.90
51579;DHT22;47998;53.242;6.386;2024-02-04T15:37:30;8.00;99.90
51579;DHT22;47998;53.242;6.386;2024-02-04T15:39:56;8.10;99.90
51579;DHT22;47998;53.242;6.386;2024-02-04T15:42:22;8.10;99.90
51579;DHT22;47998;53.242;6.386;2024-02-04T15:44:48;8.10;99.90
51579;DHT22;47998;53.242;6.386;2024-02-04T15:47:15;8.20;99.90
51579;DHT22;47998;53.242;6.386;2024-02-04T15:49:42;8.20;99.90
51579;DHT22;47998;53.242;6.386;2024-02-04T15:52:08;8.20;99.90
51579;DHT22;47998;53.242;6.386;2024-02-04T15:54:34;8.20;99.90
51579;DHT22;47998;53.242;6.386;2024-02-04T15:57:06;8.30;99.90
51579;DHT22;47998;53.242;6.386;2024-02-04T16:00:03;8.30;99.90